createdAt,value
2018-07-22T00:01:16.869Z,20.90
2018-07-22T00:03:45.933Z,20.91
2018-07-22T00:06:21.110Z,20.89
2018-07-22T00:08:50.525Z,20.78
2018-07-22T00:11:22.655Z,20.74
2018-07-22T00:13:52.763Z,20.71
2018-07-22T00:16:25.312Z,20.74
2018-07-22T00:18:54.101Z,20.70
2018-07-22T00:21:24.214Z,20.60
2018-07-22T00:23:54.718Z,20.56
2018-07-22T00:26:24.377Z,20.54
2018-07-22T00:28:53.146Z,20.53
2018-07-22T00:33:49.795Z,20.33
2018-07-22T00:36:18.768Z,20.32
2018-07-22T00:38:47.440Z,20.28
2018-07-22T00:41:16.461Z,20.28
2018-07-22T00:43:50.276Z,20.27
2018-07-22T00:46:18.997Z,20.25
2018-07-22T00:48:47.582Z,20.20
2018-07-22T00:51:16.243Z,20.14
2018-07-22T00:53:44.875Z,20.14
2018-07-22T00:56:18.555Z,20.12
2018-07-22T00:58:48.223Z,20.16
2018-07-22T01:01:17.939Z,20.15
2018-07-22T01:03:57.422Z,20.19
2018-07-22T01:06:26.488Z,20.15
2018-07-22T01:08:56.574Z,20.15
2018-07-22T01:11:25.704Z,20.18
2018-07-22T01:13:54.302Z,20.22
2018-07-22T01:16:22.928Z,20.24
2018-07-22T01:18:51.606Z,20.24
2018-07-22T01:21:20.473Z,20.22
2018-07-22T01:23:55.380Z,20.26
2018-07-22T01:26:24.019Z,20.28
2018-07-22T01:28:53.764Z,20.27
2018-07-22T01:31:33.112Z,20.18
2018-07-22T01:34:03.432Z,20.19
2018-07-22T01:36:35.833Z,20.21
2018-07-22T01:39:06.645Z,20.24
2018-07-22T01:41:35.147Z,20.28
2018-07-22T01:44:04.935Z,20.32
2018-07-22T01:46:33.545Z,20.36
2018-07-22T01:49:02.436Z,20.44
2018-07-22T01:51:31.532Z,20.51
2018-07-22T01:54:10.948Z,20.54
2018-07-22T01:56:44.888Z,20.59
2018-07-22T01:59:13.400Z,20.65
2018-07-22T02:01:41.930Z,20.65
2018-07-22T02:04:10.477Z,20.71
2018-07-22T02:06:40.641Z,20.71
2018-07-22T02:09:10.306Z,20.72
2018-07-22T02:11:42.791Z,20.71
2018-07-22T02:14:11.278Z,20.72
2018-07-22T02:16:40.285Z,20.70
2018-07-22T02:19:08.776Z,20.73
2018-07-22T02:21:37.332Z,20.70
2018-07-22T02:24:06.772Z,20.69
2018-07-22T02:26:35.683Z,20.73
2018-07-22T02:29:04.195Z,20.72
2018-07-22T02:31:32.731Z,20.70
2018-07-22T02:34:02.995Z,20.71
2018-07-22T02:36:40.888Z,20.69
2018-07-22T02:39:11.692Z,20.73
2018-07-22T02:41:40.313Z,20.75
2018-07-22T02:44:09.160Z,20.74
2018-07-22T02:46:38.049Z,20.69
2018-07-22T02:49:06.642Z,20.65
2018-07-22T02:51:35.679Z,20.66
2018-07-22T02:54:04.898Z,20.67
2018-07-22T02:56:33.616Z,20.65
2018-07-22T02:59:05.256Z,20.68
2018-07-22T03:01:36.007Z,20.65
2018-07-22T03:04:06.159Z,20.63
2018-07-22T03:06:34.926Z,20.63
2018-07-22T03:09:09.681Z,20.63
2018-07-22T03:11:38.287Z,20.69
2018-07-22T03:14:07.042Z,20.69
2018-07-22T03:16:36.113Z,20.64
2018-07-22T03:19:04.735Z,20.68
2018-07-22T03:21:33.552Z,20.71
2018-07-22T03:26:38.739Z,20.68
2018-07-22T03:29:08.115Z,20.70
2018-07-22T03:31:36.623Z,20.70
2018-07-22T03:34:11.013Z,20.65
2018-07-22T03:36:39.539Z,20.58
2018-07-22T03:39:12.316Z,20.53
2018-07-22T03:41:41.661Z,20.55
2018-07-22T03:44:10.255Z,20.58
2018-07-22T03:46:38.879Z,20.60
2018-07-22T03:49:07.346Z,20.53
2018-07-22T03:51:35.909Z,20.48
2018-07-22T03:54:05.336Z,20.49
2018-07-22T03:56:34.336Z,20.50
2018-07-22T03:59:02.880Z,20.55
2018-07-22T04:01:33.815Z,20.60
2018-07-22T04:04:04.275Z,20.63
2018-07-22T04:06:32.800Z,20.67
2018-07-22T04:09:06.532Z,20.72
2018-07-22T04:11:35.950Z,20.70
2018-07-22T04:14:15.986Z,20.70
2018-07-22T04:16:44.560Z,20.67
2018-07-22T04:19:13.817Z,20.71
2018-07-22T04:21:42.404Z,20.69
2018-07-22T04:24:10.916Z,20.69
2018-07-22T04:26:39.486Z,20.70
2018-07-22T04:29:14.040Z,20.70
2018-07-22T04:31:42.602Z,20.73
2018-07-22T04:34:11.861Z,20.79
2018-07-22T04:36:45.732Z,20.87
2018-07-22T04:39:14.235Z,20.94
2018-07-22T04:41:42.740Z,20.99
2018-07-22T04:44:11.357Z,21.07
2018-07-22T04:46:39.916Z,21.08
2018-07-22T04:49:08.819Z,21.13
2018-07-22T04:51:38.909Z,21.16
2018-07-22T04:54:07.475Z,21.24
2018-07-22T04:56:35.953Z,21.31
2018-07-22T04:59:04.495Z,21.35
2018-07-22T05:01:32.998Z,21.39
2018-07-22T05:04:02.145Z,21.53
2018-07-22T05:06:36.534Z,21.63
2018-07-22T05:09:08.457Z,21.65
2018-07-22T05:11:37.387Z,21.69
2018-07-22T05:14:06.007Z,21.75
2018-07-22T05:16:38.058Z,21.79
2018-07-22T05:19:06.939Z,21.83
2018-07-22T05:21:35.513Z,21.89
2018-07-22T05:24:04.708Z,21.94
2018-07-22T05:26:33.292Z,22.02
2018-07-22T05:29:07.771Z,22.08
2018-07-22T05:31:36.767Z,22.11
2018-07-22T05:34:05.667Z,22.05
2018-07-22T05:36:34.255Z,22.07
2018-07-22T05:39:02.843Z,22.08
2018-07-22T05:41:31.432Z,22.03
2018-07-22T05:44:06.290Z,22.00
2018-07-22T05:46:35.049Z,21.94
2018-07-22T05:49:04.208Z,21.91
2018-07-22T05:51:33.057Z,21.99
2018-07-22T05:54:02.618Z,22.15
2018-07-22T05:56:31.200Z,22.32
2018-07-22T05:58:59.758Z,22.43
2018-07-22T06:01:31.429Z,22.53
2018-07-22T06:04:01.073Z,22.71
2018-07-22T06:06:30.538Z,22.86
2018-07-22T06:08:59.107Z,22.92
2018-07-22T06:11:29.990Z,22.80
2018-07-22T06:13:58.571Z,22.82
2018-07-22T06:16:30.819Z,22.79
2018-07-22T06:18:59.915Z,22.80
2018-07-22T06:21:28.480Z,22.78
2018-07-22T06:23:57.067Z,22.86
2018-07-22T06:26:30.842Z,22.94
2018-07-22T06:28:59.494Z,22.98
2018-07-22T06:31:28.136Z,23.09
2018-07-22T06:33:59.309Z,23.17
2018-07-22T06:36:33.745Z,23.07
2018-07-22T06:39:06.275Z,23.09
2018-07-22T06:41:36.534Z,23.04
2018-07-22T06:44:05.796Z,23.03
2018-07-22T06:46:34.412Z,23.17
2018-07-22T06:49:03.591Z,23.34
2018-07-22T06:51:32.116Z,23.45
2018-07-22T06:54:00.909Z,23.50
2018-07-22T06:56:37.135Z,23.64
2018-07-22T06:59:05.716Z,23.75
2018-07-22T07:01:34.270Z,23.83
2018-07-22T07:04:03.328Z,23.92
2018-07-22T07:06:33.542Z,23.99
2018-07-22T07:09:02.128Z,24.06
2018-07-22T07:11:34.371Z,24.14
2018-07-22T07:14:04.350Z,24.20
2018-07-22T07:16:32.894Z,24.22
2018-07-22T07:19:01.496Z,24.20
2018-07-22T07:21:30.355Z,24.20
2018-07-22T07:23:59.374Z,24.20
2018-07-22T07:26:28.021Z,24.20
2018-07-22T07:28:56.543Z,24.21
2018-07-22T07:31:25.447Z,24.21
2018-07-22T07:33:54.259Z,24.28
2018-07-22T07:36:26.789Z,24.32
2018-07-22T07:38:55.435Z,24.34
2018-07-22T07:41:24.111Z,24.24
2018-07-22T07:43:53.651Z,24.26
2018-07-22T07:46:22.858Z,24.28
2018-07-22T07:48:51.946Z,24.38
2018-07-22T07:51:21.008Z,24.47
2018-07-22T07:53:56.353Z,24.58
2018-07-22T07:56:25.428Z,24.74
2018-07-22T07:58:54.082Z,24.86
2018-07-22T08:01:23.169Z,24.92
2018-07-22T08:03:51.792Z,25.01
2018-07-22T08:06:20.490Z,25.09
2018-07-22T08:08:49.128Z,25.13
2018-07-22T08:11:18.130Z,25.09
2018-07-22T08:13:52.656Z,25.09
2018-07-22T08:16:21.424Z,25.08
2018-07-22T08:18:50.301Z,25.01
2018-07-22T08:21:18.837Z,25.06
2018-07-22T08:23:47.386Z,25.04
2018-07-22T08:26:17.367Z,25.06
2018-07-22T08:29:27.659Z,25.13
2018-07-22T08:31:56.802Z,25.15
2018-07-22T08:34:25.432Z,25.16
2018-07-22T08:36:54.031Z,25.22
2018-07-22T08:39:25.543Z,25.25
2018-07-22T08:41:55.244Z,25.30
2018-07-22T08:44:24.128Z,25.34
2018-07-22T08:46:58.701Z,25.41
2018-07-22T08:49:27.615Z,25.48
2018-07-22T08:51:56.266Z,25.55
2018-07-22T08:54:25.407Z,25.64
2018-07-22T08:56:54.434Z,25.77
2018-07-22T08:59:23.018Z,25.84
2018-07-22T09:01:51.563Z,25.95
2018-07-22T09:04:20.133Z,26.07
2018-07-22T09:06:49.010Z,26.19
2018-07-22T09:09:17.770Z,26.23
2018-07-22T09:11:46.395Z,26.29
2018-07-22T09:14:15.234Z,26.30
2018-07-22T09:16:43.761Z,26.28
2018-07-22T09:19:12.294Z,26.16
2018-07-22T09:21:41.261Z,26.16
2018-07-22T09:24:09.764Z,26.21
2018-07-22T09:26:38.379Z,26.29
2018-07-22T09:29:07.187Z,26.47
2018-07-22T09:31:38.775Z,26.64
2018-07-22T09:34:08.090Z,26.75
2018-07-22T09:36:37.029Z,26.90
2018-07-22T09:39:12.164Z,26.95
2018-07-22T09:41:41.026Z,27.10
2018-07-22T09:44:09.603Z,27.04
2018-07-22T09:46:38.136Z,27.28
2018-07-22T09:49:06.978Z,27.17
2018-07-22T09:51:42.280Z,27.36
2018-07-22T09:54:11.078Z,27.48
2018-07-22T09:56:44.882Z,27.57
2018-07-22T09:59:13.544Z,27.84
2018-07-22T10:01:48.159Z,28.08
2018-07-22T10:04:17.250Z,28.33
2018-07-22T10:09:45.227Z,28.64
2018-07-22T10:12:19.187Z,28.83
2018-07-22T10:14:48.187Z,28.95
2018-07-22T10:17:21.716Z,28.95
2018-07-22T10:19:50.433Z,29.25
2018-07-22T10:22:21.635Z,29.52
2018-07-22T10:24:50.378Z,29.83
2018-07-22T10:27:19.561Z,29.73
2018-07-22T10:29:48.479Z,29.64
2018-07-22T10:32:17.334Z,28.84
2018-07-22T10:34:46.007Z,27.94
2018-07-22T10:37:14.586Z,27.50
2018-07-22T10:39:43.428Z,27.57
2018-07-22T10:44:45.547Z,27.80
2018-07-22T10:47:14.555Z,27.70
2018-07-22T10:49:43.155Z,27.88
2018-07-22T10:52:12.008Z,27.95
2018-07-22T10:54:41.022Z,27.93
2018-07-22T10:57:09.681Z,27.85
2018-07-22T10:59:38.460Z,27.81
2018-07-22T11:02:12.713Z,27.86
2018-07-22T11:04:41.431Z,28.01
2018-07-22T11:07:10.405Z,28.36
2018-07-22T11:09:39.455Z,28.56
2018-07-22T11:12:08.672Z,28.02
2018-07-22T11:14:37.570Z,27.30
2018-07-22T11:17:06.727Z,27.10
2018-07-22T11:19:35.281Z,27.38
2018-07-22T11:22:06.169Z,27.40
2018-07-22T11:24:37.931Z,27.44
2018-07-22T11:27:06.651Z,27.25
2018-07-22T11:29:35.631Z,27.24
2018-07-22T11:32:09.446Z,27.65
2018-07-22T11:34:38.215Z,28.23
2018-07-22T11:37:06.827Z,28.59
2018-07-22T11:39:35.687Z,28.68
2018-07-22T11:42:07.382Z,28.29
2018-07-22T11:44:38.087Z,28.38
2018-07-22T11:47:06.843Z,28.43
2018-07-22T11:49:36.385Z,28.48
2018-07-22T11:52:06.198Z,28.60
2018-07-22T11:54:35.270Z,28.62
2018-07-22T11:57:04.218Z,28.97
2018-07-22T11:59:32.801Z,29.44
2018-07-22T12:02:03.344Z,29.43
2018-07-22T12:04:32.307Z,29.80
2018-07-22T12:07:05.706Z,30.17
2018-07-22T12:09:34.832Z,30.81
2018-07-22T12:12:04.391Z,31.33
2018-07-22T12:14:33.034Z,31.52
2018-07-22T12:17:02.427Z,31.27
2018-07-22T12:19:31.046Z,30.95
2018-07-22T12:21:59.609Z,30.74
2018-07-22T12:24:28.462Z,30.47
2018-07-22T12:26:57.112Z,30.51
2018-07-22T12:29:26.088Z,30.84
2018-07-22T12:31:56.466Z,31.67
2018-07-22T12:34:25.192Z,32.23
2018-07-22T12:36:55.735Z,32.31
2018-07-22T12:39:25.100Z,32.03
2018-07-22T12:44:37.183Z,32.50
2018-07-22T12:47:07.066Z,33.12
2018-07-22T12:49:36.143Z,33.27
2018-07-22T12:52:05.532Z,32.85
2018-07-22T12:54:38.656Z,32.53
2018-07-22T12:57:07.893Z,32.27
2018-07-22T12:59:39.887Z,31.95
2018-07-22T13:02:09.089Z,31.64
2018-07-22T13:07:10.828Z,32.15
2018-07-22T13:09:39.444Z,31.91
2018-07-22T13:12:08.361Z,31.80
2018-07-22T13:14:36.975Z,31.47
2018-07-22T13:17:05.675Z,31.25
2018-07-22T13:19:34.559Z,31.11
2018-07-22T13:22:08.147Z,30.84
2018-07-22T13:24:37.343Z,30.69
2018-07-22T13:27:06.705Z,30.46
2018-07-22T13:29:35.324Z,30.51
2018-07-22T13:32:12.470Z,30.83
2018-07-22T13:34:41.084Z,31.08
2018-07-22T13:37:12.501Z,31.23
2018-07-22T13:39:41.383Z,31.60
2018-07-22T13:42:11.232Z,31.75
2018-07-22T13:44:39.921Z,32.63
2018-07-22T13:47:08.804Z,33.08
2018-07-22T13:49:37.519Z,33.99
2018-07-22T13:52:06.462Z,35.53
2018-07-22T13:54:41.354Z,35.86
2018-07-22T13:57:10.137Z,35.11
2018-07-22T13:59:42.251Z,34.55
2018-07-22T14:02:11.736Z,33.96
2018-07-22T14:04:42.697Z,33.56
2018-07-22T14:07:11.581Z,33.19
2018-07-22T14:09:41.859Z,32.88
2018-07-22T14:12:10.666Z,32.59
2018-07-22T14:14:40.853Z,32.18
2018-07-22T14:17:10.036Z,31.74
2018-07-22T14:19:40.739Z,31.03
2018-07-22T14:22:20.445Z,30.70
2018-07-22T14:24:49.067Z,30.73
2018-07-22T14:27:18.498Z,30.70
2018-07-22T14:29:47.671Z,30.15
2018-07-22T14:32:27.216Z,29.56
2018-07-22T14:34:56.397Z,28.94
2018-07-22T14:37:33.421Z,28.73
2018-07-22T14:40:03.362Z,28.26
2018-07-22T14:42:32.146Z,27.82
2018-07-22T14:45:04.072Z,27.47
2018-07-22T14:47:38.382Z,27.38
2018-07-22T14:50:07.080Z,27.23
2018-07-22T14:52:35.994Z,27.05
2018-07-22T14:55:05.272Z,26.83
2018-07-22T14:57:33.883Z,26.58
2018-07-22T15:00:08.409Z,26.35
2018-07-22T15:02:37.604Z,26.17
2018-07-22T15:05:07.805Z,26.06
2018-07-22T15:07:36.680Z,25.97
2018-07-22T15:10:06.950Z,25.84
2018-07-22T15:12:35.534Z,25.72
2018-07-22T15:15:05.842Z,25.64
2018-07-22T15:17:34.774Z,25.54
2018-07-22T15:20:05.616Z,25.44
2018-07-22T15:22:34.989Z,25.35
2018-07-22T15:25:03.914Z,25.11
2018-07-22T15:27:38.193Z,25.06
2018-07-22T15:30:07.023Z,24.91
2018-07-22T15:32:36.065Z,24.84
2018-07-22T15:35:05.452Z,24.75
2018-07-22T15:37:45.010Z,24.67
2018-07-22T15:40:13.626Z,24.42
2018-07-22T15:42:42.323Z,24.42
2018-07-22T15:45:11.094Z,24.47
2018-07-22T15:47:40.041Z,24.51
2018-07-22T15:53:06.068Z,24.67
2018-07-22T15:55:34.950Z,24.71
2018-07-22T15:58:04.394Z,24.77
2018-07-22T16:00:37.584Z,24.86
2018-07-22T16:03:06.467Z,24.94
2018-07-22T16:05:37.312Z,25.04
2018-07-22T16:08:07.122Z,25.08
2018-07-22T16:10:35.802Z,25.10
2018-07-22T16:13:04.512Z,25.21
2018-07-22T16:15:34.548Z,25.27
2018-07-22T16:18:04.612Z,25.32
2018-07-22T16:20:33.401Z,25.34
2018-07-22T16:23:02.605Z,25.38
2018-07-22T16:25:31.538Z,25.50
2018-07-22T16:28:08.665Z,25.62
2018-07-22T16:30:37.429Z,25.68
2018-07-22T16:33:06.682Z,25.75
2018-07-22T16:35:36.132Z,25.83
2018-07-22T16:38:06.809Z,25.91
2018-07-22T16:40:35.597Z,25.95
2018-07-22T16:43:20.344Z,25.98
2018-07-22T16:45:52.355Z,26.02
2018-07-22T16:48:21.603Z,26.02
2018-07-22T16:50:54.089Z,25.97
2018-07-22T16:53:22.815Z,25.98
2018-07-22T16:55:52.094Z,25.98
2018-07-22T16:58:20.755Z,25.93
2018-07-22T17:00:51.554Z,25.91
2018-07-22T17:03:20.519Z,25.82
2018-07-22T17:05:54.083Z,25.74
2018-07-22T17:08:22.738Z,25.64
2018-07-22T17:10:52.969Z,25.60
2018-07-22T17:13:21.882Z,25.49
2018-07-22T17:15:53.392Z,25.46
2018-07-22T17:18:22.501Z,25.41
2018-07-22T17:20:54.171Z,25.32
2018-07-22T17:23:23.243Z,25.29
2018-07-22T17:25:52.830Z,25.26
2018-07-22T17:28:21.609Z,25.25
2018-07-22T17:30:51.148Z,25.24
2018-07-22T17:33:19.722Z,25.27
2018-07-22T17:35:52.799Z,25.27
2018-07-22T17:38:21.490Z,25.25
2018-07-22T17:40:56.287Z,25.23
2018-07-22T17:43:25.427Z,25.17
2018-07-22T17:45:54.267Z,25.14
2018-07-22T17:48:23.241Z,25.11
2018-07-22T17:50:52.860Z,25.09
2018-07-22T17:53:21.539Z,25.06
2018-07-22T17:55:50.464Z,25.03
2018-07-22T17:58:19.182Z,25.01
2018-07-22T18:00:48.105Z,24.97
2018-07-22T18:03:34.263Z,24.93
2018-07-22T18:06:04.250Z,24.89
2018-07-22T18:08:33.835Z,24.82
2018-07-22T18:11:03.248Z,24.75
2018-07-22T18:13:43.068Z,24.70
2018-07-22T18:16:12.243Z,24.68
2018-07-22T18:18:40.869Z,24.64
2018-07-22T18:21:10.137Z,24.60
2018-07-22T18:23:40.990Z,24.55
2018-07-22T18:26:09.774Z,24.48
2018-07-22T18:28:42.583Z,24.46
2018-07-22T18:31:11.797Z,24.47
2018-07-22T18:33:40.478Z,24.49
2018-07-22T18:36:09.427Z,24.43
2018-07-22T18:38:38.184Z,24.34
2018-07-22T18:41:06.880Z,24.26
2018-07-22T18:43:35.698Z,24.16
2018-07-22T18:46:17.487Z,24.01
2018-07-22T18:48:47.465Z,23.88
2018-07-22T18:51:20.107Z,23.86
2018-07-22T18:53:48.967Z,23.83
2018-07-22T18:56:21.754Z,23.79
2018-07-22T18:58:50.299Z,23.76
2018-07-22T19:01:21.927Z,23.76
2018-07-22T19:03:50.849Z,23.74
2018-07-22T19:06:19.884Z,23.75
2018-07-22T19:08:48.637Z,23.77
2018-07-22T19:11:17.568Z,23.75
2018-07-22T19:13:46.242Z,23.75
2018-07-22T19:16:14.886Z,23.66
2018-07-22T19:18:43.836Z,23.58
2018-07-22T19:21:12.651Z,23.55
2018-07-22T19:23:41.525Z,23.41
2018-07-22T19:26:10.353Z,23.24
2018-07-22T19:28:39.061Z,23.17
2018-07-22T19:31:07.656Z,23.14
2018-07-22T19:33:36.501Z,23.17
2018-07-22T19:36:05.487Z,23.20
2018-07-22T19:38:34.039Z,23.20
2018-07-22T19:41:03.450Z,23.20
2018-07-22T19:43:43.089Z,23.21
2018-07-22T19:46:12.243Z,23.13
2018-07-22T19:48:40.965Z,23.11
2018-07-22T19:51:16.388Z,23.05
2018-07-22T19:53:45.089Z,23.02
2018-07-22T19:56:15.179Z,23.02
2018-07-22T19:58:43.766Z,23.06
2018-07-22T20:01:17.619Z,23.08
2018-07-22T20:03:46.267Z,23.08
2018-07-22T20:06:21.787Z,23.03
2018-07-22T20:08:50.591Z,23.02
2018-07-22T20:13:44.665Z,22.97
2018-07-22T20:16:18.618Z,22.98
2018-07-22T20:18:47.203Z,23.03
2018-07-22T20:21:17.257Z,23.04
2018-07-22T20:23:47.130Z,23.05
2018-07-22T20:26:15.639Z,22.98
2018-07-22T20:28:44.217Z,22.97
2018-07-22T20:31:16.470Z,23.03
2018-07-22T20:33:45.071Z,23.11
2018-07-22T20:36:17.089Z,23.13
2018-07-22T20:38:46.161Z,23.10
2018-07-22T20:41:15.479Z,23.11
2018-07-22T20:43:44.081Z,23.04
2018-07-22T20:46:17.580Z,23.01
2018-07-22T20:48:46.202Z,22.99
2018-07-22T20:51:14.748Z,22.98
2018-07-22T20:53:47.303Z,23.02
2018-07-22T20:56:15.859Z,23.06
2018-07-22T20:58:44.379Z,23.08
2018-07-22T21:01:12.952Z,23.09
2018-07-22T21:03:41.550Z,23.10
2018-07-22T21:06:10.127Z,23.11
2018-07-22T21:08:41.940Z,23.15
2018-07-22T21:11:16.485Z,23.20
2018-07-22T21:13:56.351Z,23.22
2018-07-22T21:16:27.574Z,23.23
2018-07-22T21:18:56.527Z,23.26
2018-07-22T21:21:25.624Z,23.28
2018-07-22T21:23:55.603Z,23.29
2018-07-22T21:26:24.208Z,23.30
2018-07-22T21:28:52.873Z,23.28
2018-07-22T21:31:32.459Z,23.29
2018-07-22T21:34:01.185Z,23.29
2018-07-22T21:36:35.689Z,23.30
2018-07-22T21:39:06.224Z,23.30
2018-07-22T21:41:38.120Z,23.31
2018-07-22T21:44:07.114Z,23.31
2018-07-22T21:46:35.783Z,23.34
2018-07-22T21:49:04.372Z,23.34
2018-07-22T21:51:32.968Z,23.34
2018-07-22T21:54:10.632Z,23.33
2018-07-22T21:56:45.104Z,23.32
2018-07-22T21:59:14.142Z,23.33
2018-07-22T22:01:43.376Z,23.32
2018-07-22T22:04:11.941Z,23.34
2018-07-22T22:06:40.580Z,23.33
2018-07-22T22:09:09.703Z,23.32
2018-07-22T22:11:38.616Z,23.29
2018-07-22T22:14:08.603Z,23.28
2018-07-22T22:16:37.456Z,23.22
2018-07-22T22:19:06.000Z,23.17
2018-07-22T22:21:34.581Z,23.14
2018-07-22T22:24:04.240Z,23.12
2018-07-22T22:26:33.146Z,23.09
2018-07-22T22:31:41.313Z,23.05
2018-07-22T22:34:15.888Z,23.02
2018-07-22T22:36:44.512Z,23.00
2018-07-22T22:39:13.996Z,22.98
2018-07-22T22:41:45.996Z,22.97
2018-07-22T22:44:15.195Z,22.97
2018-07-22T22:46:43.848Z,22.97
2018-07-22T22:49:14.505Z,22.94
2018-07-22T22:51:43.030Z,22.92
2018-07-22T22:54:11.908Z,22.92
2018-07-22T22:56:40.535Z,22.91
2018-07-22T22:59:20.544Z,22.90
2018-07-22T23:01:49.598Z,22.90
2018-07-22T23:04:18.292Z,22.89
2018-07-22T23:06:47.147Z,22.85
2018-07-22T23:09:16.470Z,22.84
2018-07-22T23:11:45.116Z,22.83
2018-07-22T23:14:15.644Z,22.81
2018-07-22T23:16:44.255Z,22.79
2018-07-22T23:19:12.763Z,22.78
2018-07-22T23:21:41.400Z,22.77
2018-07-22T23:24:09.883Z,22.73
2018-07-22T23:26:38.438Z,22.73
2018-07-22T23:29:07.249Z,22.73
2018-07-22T23:31:35.994Z,22.70
2018-07-22T23:34:05.719Z,22.66
2018-07-22T23:36:34.644Z,22.65
2018-07-22T23:39:05.203Z,22.60
2018-07-22T23:41:33.720Z,22.58
2018-07-22T23:44:04.233Z,22.55
2018-07-22T23:46:37.972Z,22.54
2018-07-22T23:49:06.635Z,22.52
2018-07-22T23:51:35.223Z,22.52
2018-07-22T23:54:04.940Z,22.51
2018-07-22T23:56:33.442Z,22.49
2018-07-22T23:59:07.735Z,22.46
